Time;durP1;ratioP1;P1;durP2;ratioP2;P2;SDS_P1;SDS_P2;PMS_P1;PMS_P2;Temp;Humidity;BMP_temperature;BMP_pressure;BME280_temperature;BME280_humidity;BME280_pressure;Samples;Min_cycle;Max_cycle;Signal;HPM_P1;HPM_P2
2021/04/16 00:01:09;;;;;;;11.98;8.02;;;;;;;6.39;76.15;101023.56;5108900;27;20363;-80
2021/04/16 00:03:52;;;;;;;10.40;8.00;;;;;;;6.39;76.23;101020.06;5110228;27;20373;-79
2021/04/16 00:06:35;;;;;;;11.63;8.88;;;;;;;6.36;76.55;101002.44;5095094;27;20369;-80
2021/04/16 00:09:18;;;;;;;10.00;8.15;;;;;;;6.36;76.26;100998.91;5110795;27;20724;-79
2021/04/16 00:12:03;;;;;;;12.88;8.40;;;;;;;6.37;76.80;100997.97;5102551;27;20367;-79
2021/04/16 00:14:46;;;;;;;10.48;8.25;;;;;;;6.35;76.82;100991.84;5066051;28;20724;-79
2021/04/16 00:17:27;;;;;;;9.52;7.63;;;;;;;6.36;77.04;100989.09;5056068;28;20740;-79
2021/04/16 00:20:15;;;;;;;10.13;8.25;;;;;;;6.33;76.94;100988.41;5058339;28;20370;-79
2021/04/16 00:22:59;;;;;;;11.00;8.65;;;;;;;6.30;76.58;100985.94;5052715;28;20378;-78
2021/04/16 00:25:39;;;;;;;10.35;8.13;;;;;;;6.24;76.88;100987.19;5070539;28;20391;-80
2021/04/16 00:28:23;;;;;;;10.73;8.35;;;;;;;6.22;76.76;100988.22;5096340;27;20371;-81
2021/04/16 00:31:20;;;;;;;9.73;8.35;;;;;;;6.07;77.17;100983.81;5091388;27;20352;-78
2021/04/16 00:34:03;;;;;;;10.30;8.75;;;;;;;6.05;77.63;100983.88;5061112;28;20383;-80
2021/04/16 00:36:48;;;;;;;9.18;8.25;;;;;;;6.08;77.37;100991.69;5097997;27;20368;-79
2021/04/16 00:39:28;;;;;;;14.02;8.48;;;;;;;5.90;77.62;100988.28;5091932;27;20378;-81
2021/04/16 00:42:12;;;;;;;10.10;8.68;;;;;;;5.78;78.47;100990.78;5079825;27;20369;-79
2021/04/16 00:44:57;;;;;;;12.13;9.13;;;;;;;5.78;78.40;100988.97;5092077;27;20374;-79
2021/04/16 00:47:37;;;;;;;12.57;9.27;;;;;;;5.80;78.35;100981.75;5109805;27;20377;-79
2021/04/16 00:50:28;;;;;;;13.02;9.85;;;;;;;5.84;78.83;100987.78;5098604;27;20373;-80
2021/04/16 00:53:15;;;;;;;9.48;8.45;;;;;;;5.90;78.65;100992.75;5101431;27;20372;-78
2021/04/16 00:55:59;;;;;;;11.27;9.20;;;;;;;5.95;78.62;100990.69;5070018;28;20387;-79
2021/04/16 00:58:39;;;;;;;11.10;9.05;;;;;;;5.98;78.57;100992.31;5106451;27;20866;-78
2021/04/16 01:01:24;;;;;;;11.40;8.43;;;;;;;6.02;78.47;100985.88;5065076;28;20362;-80
2021/04/16 01:04:07;;;;;;;15.48;9.18;;;;;;;5.99;78.75;100991.38;5061098;28;20381;-80
2021/04/16 01:06:53;;;;;;;10.95;9.65;;;;;;;6.02;78.60;100991.22;5069565;28;20365;-78
2021/04/16 01:09:37;;;;;;;12.80;10.40;;;;;;;5.88;78.73;100984.88;5068047;28;20376;-78
2021/04/16 01:12:21;;;;;;;13.50;9.45;;;;;;;5.79;78.85;100987.19;5070538;28;20723;-78
2021/04/16 01:15:25;;;;;;;13.60;9.82;;;;;;;5.84;78.89;100994.00;5113967;27;1031281;-79
2021/04/16 01:18:16;;;;;;;12.40;9.95;;;;;;;5.78;78.89;100988.97;5060869;28;20370;-78
2021/04/16 01:21:07;;;;;;;13.50;9.25;;;;;;;5.76;78.75;100984.69;5102880;27;20879;-78
2021/04/16 01:23:56;;;;;;;11.52;9.60;;;;;;;5.78;79.14;100980.13;5111191;27;20844;-78
2021/04/16 01:26:39;;;;;;;12.10;9.30;;;;;;;5.82;78.94;100982.56;5106193;27;20374;-79
2021/04/16 01:29:26;;;;;;;11.40;10.10;;;;;;;5.82;78.83;100984.34;5051721;28;20369;-79
2021/04/16 01:32:19;;;;;;;11.45;9.45;;;;;;;5.88;78.99;100989.34;5068781;28;20731;-80
2021/04/16 01:35:09;;;;;;;10.95;8.70;;;;;;;5.95;78.95;100984.53;5058720;28;20384;-80
2021/04/16 01:37:52;;;;;;;11.05;8.85;;;;;;;6.01;78.77;100982.34;5104694;27;20398;-80
2021/04/16 01:40:37;;;;;;;11.10;8.77;;;;;;;6.08;78.60;100983.69;5091826;27;20380;-78
2021/04/16 01:43:29;;;;;;;10.38;9.27;;;;;;;6.20;78.23;100995.44;5065760;28;20375;-79
2021/04/16 01:46:18;;;;;;;11.73;8.93;;;;;;;6.17;78.16;100996.47;5110028;27;20377;-80
2021/04/16 01:49:01;;;;;;;11.90;8.88;;;;;;;6.14;77.55;100990.47;5108270;27;950829;-78
2021/04/16 01:51:45;;;;;;;11.77;8.25;;;;;;;6.10;77.60;100983.63;5111121;27;20367;-80
2021/04/16 01:54:35;;;;;;;12.07;9.20;;;;;;;6.07;77.73;100989.13;5108928;27;20864;-79
2021/04/16 01:57:24;;;;;;;13.38;8.82;;;;;;;6.05;77.83;100983.03;5070933;28;20395;-80
2021/04/16 02:00:16;;;;;;;9.80;8.65;;;;;;;6.12;77.59;100987.06;5102988;27;20370;-80
2021/04/16 02:03:00;;;;;;;11.27;8.95;;;;;;;6.16;77.96;100984.09;5092024;27;20387;-80
2021/04/16 02:05:44;;;;;;;12.38;9.07;;;;;;;6.14;77.65;100982.47;5098406;27;20394;-78
2021/04/16 02:08:29;;;;;;;13.65;9.93;;;;;;;6.14;77.85;100979.81;5122214;27;20349;-77
2021/04/16 02:11:13;;;;;;;12.13;9.40;;;;;;;6.18;77.82;100976.00;5092423;27;20356;-78
2021/04/16 02:13:57;;;;;;;12.02;8.45;;;;;;;6.14;77.60;100979.81;5104201;27;20718;-79
2021/04/16 02:16:45;;;;;;;10.90;8.65;;;;;;;6.13;78.04;100981.63;5054408;28;20373;-80
2021/04/16 02:19:27;;;;;;;12.13;9.20;;;;;;;6.13;78.04;100976.28;5069847;28;20376;-79
2021/04/16 02:22:18;;;;;;;12.90;9.52;;;;;;;6.13;78.15;100976.28;5052981;28;20384;-80
2021/04/16 02:25:04;;;;;;;10.30;8.68;;;;;;;6.08;78.50;100973.03;5108329;27;20374;-80
2021/04/16 02:27:43;;;;;;;11.65;9.52;;;;;;;6.13;78.53;100976.28;5111476;27;20372;-80
2021/04/16 02:30:34;;;;;;;11.10;9.05;;;;;;;6.14;78.46;100979.81;5063602;28;20374;-78
2021/04/16 02:34:05;;;;;;;12.18;9.15;;;;;;;6.15;78.31;100976.19;5070767;28;20881;-80
2021/04/16 02:36:50;;;;;;;15.98;10.25;;;;;;;6.03;78.78;100976.91;5098188;27;20394;-80
2021/04/16 02:39:30;;;;;;;10.75;9.45;;;;;;;6.04;79.17;100965.31;5070897;28;20711;-79
2021/04/16 02:42:15;;;;;;;13.10;8.88;;;;;;;6.09;79.04;100971.25;5122963;27;20694;-79
2021/04/16 02:45:23;;;;;;;11.88;9.52;;;;;;;6.03;78.82;100964.47;5099252;28;20055;-78
2021/04/16 02:48:27;;;;;;;10.07;8.98;;;;;;;6.11;78.65;100962.19;5100225;28;20050;-80
2021/04/16 02:51:11;;;;;;;10.90;9.15;;;;;;;6.06;78.71;100961.63;5056414;28;20370;-80
2021/04/16 02:53:57;;;;;;;12.75;9.63;;;;;;;6.08;78.88;100966.84;5056600;28;20376;-79
2021/04/16 02:56:41;;;;;;;10.38;9.25;;;;;;;6.07;79.13;100968.69;5070367;28;20379;-79
2021/04/16 02:59:23;;;;;;;11.25;9.38;;;;;;;6.07;79.10;100963.34;5097173;27;20707;-79
2021/04/16 03:02:08;;;;;;;14.32;10.10;;;;;;;6.10;79.23;100963.13;5131329;27;20840;-80
2021/04/16 03:04:52;;;;;;;12.80;9.48;;;;;;;6.09;79.00;100955.25;5050422;28;20384;-78
2021/04/16 03:07:57;;;;;;;12.32;10.00;;;;;;;6.05;79.09;100951.06;5065130;28;20371;-78
2021/04/16 03:10:42;;;;;;;12.93;10.20;;;;;;;6.09;79.12;100950.78;5171461;27;20701;-78
2021/04/16 03:13:25;;;;;;;12.15;9.55;;;;;;;6.07;78.95;100952.69;5089693;27;20356;-78
2021/04/16 03:16:09;;;;;;;13.45;9.85;;;;;;;6.06;79.10;100955.44;5055607;28;20373;-78
2021/04/16 03:18:51;;;;;;;14.32;10.13;;;;;;;6.07;79.21;100958.03;5106166;27;20390;-79
2021/04/16 03:21:30;;;;;;;11.50;10.25;;;;;;;6.07;79.14;100955.34;5093340;27;20368;-80
2021/04/16 03:24:14;;;;;;;13.23;10.50;;;;;;;6.05;79.13;100954.56;5050632;28;20384;-78
2021/04/16 03:26:58;;;;;;;12.73;10.07;;;;;;;6.03;79.66;100953.78;5096219;27;20373;-78
2021/04/16 03:29:37;;;;;;;13.85;10.00;;;;;;;6.01;79.80;100946.84;5065428;28;20375;-80
2021/04/16 03:32:24;;;;;;;14.88;10.20;;;;;;;6.01;79.83;100952.16;5066438;28;20369;-78
2021/04/16 03:35:10;;;;;;;12.48;10.20;;;;;;;5.98;79.53;100952.34;5105170;27;20367;-80
2021/04/16 03:37:54;;;;;;;15.30;10.27;;;;;;;5.94;79.72;100951.69;5054840;28;20736;-80
2021/04/16 03:40:39;;;;;;;13.35;10.57;;;;;;;5.81;80.02;100951.53;5062841;28;20370;-78
2021/04/16 03:43:23;;;;;;;12.48;10.20;;;;;;;5.87;80.35;100956.53;5096083;27;20367;-80
2021/04/16 03:46:06;;;;;;;13.50;10.43;;;;;;;5.86;80.25;100953.94;5100562;27;20364;-80
2021/04/16 03:48:50;;;;;;;14.00;10.00;;;;;;;5.83;80.26;100959.41;5110679;27;20369;-79
2021/04/16 03:51:54;;;;;;;12.27;9.90;;;;;;;5.91;79.77;100962.53;5065003;28;20400;-77
2021/04/16 03:54:39;;;;;;;17.05;11.00;;;;;;;5.86;79.34;100952.13;5096149;27;20706;-78
2021/04/16 03:57:24;;;;;;;15.05;10.52;;;;;;;5.82;79.56;100953.25;5110555;27;20741;-80
2021/04/16 04:00:10;;;;;;;12.15;10.30;;;;;;;5.78;79.64;100957.03;5058729;28;20379;-80
2021/04/16 04:02:53;;;;;;;12.13;10.90;;;;;;;5.69;79.92;100954.91;5067224;28;20373;-80
2021/04/16 04:05:34;;;;;;;15.70;10.68;;;;;;;5.60;80.42;100954.56;5054755;28;20376;-78
2021/04/16 04:08:18;;;;;;;14.57;10.23;;;;;;;5.56;80.89;100955.69;5110491;27;20366;-79
2021/04/16 04:11:03;;;;;;;17.20;10.32;;;;;;;5.56;80.87;100951.22;5052332;28;20381;-79
2021/04/16 04:13:47;;;;;;;13.73;9.80;;;;;;;5.53;80.85;100950.56;5069020;28;20365;-78
2021/04/16 04:16:30;;;;;;;13.70;10.23;;;;;;;5.52;81.34;100952.34;5052212;28;20356;-78
2021/04/16 04:19:08;;;;;;;12.65;10.82;;;;;;;5.56;80.96;100956.53;5109867;27;20366;-78
2021/04/16 04:21:54;;;;;;;11.68;10.10;;;;;;;5.49;80.93;100960.50;5070841;28;20379;-79
2021/04/16 04:24:39;;;;;;;15.02;10.40;;;;;;;5.49;81.12;100949.88;5106273;27;20367;-81
2021/04/16 04:27:23;;;;;;;12.45;10.38;;;;;;;5.43;81.17;100968.84;5098649;27;20374;-78
2021/04/16 04:30:05;;;;;;;15.40;10.60;;;;;;;5.37;81.50;100950.56;5064343;28;20378;-80
2021/04/16 04:32:50;;;;;;;11.48;10.27;;;;;;;5.34;81.64;100961.38;5083759;28;20600;-78
2021/04/16 04:35:34;;;;;;;15.68;10.75;;;;;;;5.38;81.27;100952.28;5082608;27;20871;-79
2021/04/16 04:38:19;;;;;;;14.88;10.85;;;;;;;5.40;81.40;100965.50;5152144;27;20387;-79
2021/04/16 04:41:03;;;;;;;14.98;10.95;;;;;;;5.37;81.27;100961.22;5111214;27;20359;-79
2021/04/16 04:43:48;;;;;;;13.13;10.80;;;;;;;5.33;81.32;100965.00;5111405;27;20683;-78
2021/04/16 04:46:28;;;;;;;14.07;11.45;;;;;;;5.36;81.51;100964.81;5106569;27;20730;-80
2021/04/16 04:49:15;;;;;;;15.38;11.63;;;;;;;5.30;81.24;100964.31;5070626;28;20363;-79
2021/04/16 04:52:13;;;;;;;13.35;10.88;;;;;;;5.32;81.26;100959.75;5070493;27;20353;-78
2021/04/16 04:54:56;;;;;;;14.40;10.82;;;;;;;5.40;81.31;100966.38;5111573;27;20359;-78
2021/04/16 04:57:41;;;;;;;13.95;10.60;;;;;;;5.48;81.18;100961.44;5131754;27;20123;-78
2021/04/16 05:00:26;;;;;;;15.13;11.10;;;;;;;5.55;80.77;100976.16;5070709;28;20364;-80
2021/04/16 05:03:09;;;;;;;13.45;10.75;;;;;;;5.66;80.61;100973.72;5111283;27;20868;-80
2021/04/16 05:05:53;;;;;;;15.05;11.20;;;;;;;5.75;80.57;100977.66;5070462;28;20368;-79
2021/04/16 05:08:36;;;;;;;15.68;10.60;;;;;;;5.79;80.21;100977.41;5070001;28;20856;-79
2021/04/16 05:11:19;;;;;;;12.77;10.18;;;;;;;5.86;79.93;100978.78;5110891;27;20372;-80
2021/04/16 05:14:03;;;;;;;16.10;11.13;;;;;;;5.97;79.17;100979.97;5069844;28;20383;-78
2021/04/16 05:16:48;;;;;;;25.67;18.60;;;;;;;6.29;78.89;100985.09;5110880;27;20358;-78
2021/04/16 05:19:32;;;;;;;18.33;14.75;;;;;;;6.62;77.76;100976.84;5070213;28;20704;-80
2021/04/16 05:22:11;;;;;;;15.43;10.45;;;;;;;7.00;75.44;100975.31;5111196;27;20361;-79
2021/04/16 05:24:55;;;;;;;12.30;10.18;;;;;;;7.42;73.00;100974.38;5110678;27;20373;-77
2021/04/16 05:27:38;;;;;;;13.00;9.25;;;;;;;7.96;71.20;100974.34;5070324;28;20369;-79
2021/04/16 05:30:23;;;;;;;14.93;10.10;;;;;;;8.53;69.26;100986.47;5110554;27;20713;-80
2021/04/16 05:33:07;;;;;;;12.10;9.55;;;;;;;9.10;66.70;100981.50;5070253;28;20379;-79
2021/04/16 05:35:54;;;;;;;14.60;9.38;;;;;;;9.63;65.25;100986.50;5051144;28;20366;-79
2021/04/16 05:38:36;;;;;;;17.60;9.57;;;;;;;10.35;62.56;100985.50;5110263;27;20369;-81
2021/04/16 05:41:22;;;;;;;13.18;8.48;;;;;;;11.42;58.79;100980.56;5069441;28;20375;-80
2021/04/16 05:44:02;;;;;;;14.98;8.55;;;;;;;12.68;53.92;100974.31;5070496;28;20357;-80
2021/04/16 05:46:42;;;;;;;10.02;7.82;;;;;;;12.97;52.01;100983.41;5110472;27;20377;-80
2021/04/16 05:49:24;;;;;;;15.35;8.32;;;;;;;12.07;54.05;100983.22;5070381;28;20369;-80
2021/04/16 05:52:05;;;;;;;12.07;8.10;;;;;;;11.76;54.86;100976.84;5051639;28;20853;-80
2021/04/16 05:54:44;;;;;;;12.43;8.32;;;;;;;11.13;56.70;100978.38;5091504;27;20364;-80
2021/04/16 05:57:24;;;;;;;12.90;8.63;;;;;;;10.89;57.46;100980.34;5090903;27;20692;-80
2021/04/16 06:00:07;;;;;;;18.40;8.60;;;;;;;10.52;58.53;100978.81;5058302;28;20369;-79
2021/04/16 06:02:53;;;;;;;12.57;9.18;;;;;;;10.46;59.16;100982.00;5112055;27;20459;-81
2021/04/16 06:05:37;;;;;;;14.23;10.00;;;;;;;10.15;60.61;100985.31;5070024;28;20369;-78
2021/04/16 06:08:22;;;;;;;22.15;10.20;;;;;;;10.16;60.66;100987.88;5091777;27;20356;-80
2021/04/16 06:11:08;;;;;;;16.33;10.52;;;;;;;10.23;60.76;100990.94;5110378;27;20362;-78
2021/04/16 06:13:51;;;;;;;18.40;9.98;;;;;;;10.46;60.52;100984.69;5106325;27;20864;-78
2021/04/16 06:16:36;;;;;;;18.42;10.48;;;;;;;10.98;58.82;100992.19;5070165;28;20889;-78
2021/04/16 06:19:16;;;;;;;14.55;8.38;;;;;;;11.48;56.42;100997.03;5089914;27;20364;-77
2021/04/16 06:21:56;;;;;;;10.90;8.38;;;;;;;11.73;55.40;100987.84;5067015;28;20378;-78
2021/04/16 06:24:36;;;;;;;11.57;9.70;;;;;;;12.15;54.50;100992.34;5090396;27;20862;-79
2021/04/16 06:27:20;;;;;;;14.18;8.98;;;;;;;12.86;52.24;100990.72;5109885;27;20363;-83
2021/04/16 06:30:07;;;;;;;14.27;9.68;;;;;;;12.74;52.87;100991.78;5111048;27;20346;-79
2021/04/16 06:33:10;;;;;;;16.65;10.05;;;;;;;12.38;54.47;101004.72;5068334;28;20383;-79
2021/04/16 06:36:16;;;;;;;13.18;10.82;;;;;;;12.37;53.57;100994.06;5070888;28;20395;-83
2021/04/16 06:39:22;;;;;;;14.93;11.32;;;;;;;12.10;54.50;100985.63;5070061;28;20055;-80
2021/04/16 06:42:29;;;;;;;22.30;12.10;;;;;;;12.98;52.41;100989.66;5069229;28;20391;-80
2021/04/16 06:45:33;;;;;;;16.95;10.70;;;;;;;13.38;51.92;100982.44;5068315;28;20503;-80
2021/04/16 06:48:38;;;;;;;14.88;12.25;;;;;;;13.36;51.78;100987.13;5067239;28;20048;-80
2021/04/16 06:52:15;;;;;;;21.58;13.00;;;;;;;13.00;52.36;100984.97;5066089;28;20064;-81
2021/04/16 06:55:33;;;;;;;18.23;13.52;;;;;;;13.10;52.35;100993.13;5052581;28;20063;-78
2021/04/16 06:58:50;;;;;;;18.67;15.25;;;;;;;12.63;53.60;100979.25;5069773;28;20048;-79
2021/04/16 07:01:59;;;;;;;18.95;14.65;;;;;;;12.61;54.13;100985.75;5069292;28;20048;-80
2021/04/16 07:05:22;;;;;;;19.52;13.65;;;;;;;12.84;53.75;100979.19;5046205;28;20048;-80
2021/04/16 07:08:33;;;;;;;15.73;12.43;;;;;;;16.56;45.46;100975.91;5068772;28;20052;-81
2021/04/16 07:11:51;;;;;;;15.75;12.35;;;;;;;21.46;35.10;100969.56;5068482;28;20047;-80
2021/04/16 07:15:06;;;;;;;15.80;12.38;;;;;;;25.52;28.41;100958.03;5070119;28;20083;-80
2021/04/16 07:18:13;;;;;;;17.00;11.55;;;;;;;27.42;25.34;100956.63;5065432;28;20044;-80
2021/04/16 07:21:23;;;;;;;13.93;10.60;;;;;;;28.71;23.68;100954.19;5050021;28;20052;-80
2021/04/16 07:24:28;;;;;;;11.65;9.95;;;;;;;28.74;23.23;100950.94;5049624;28;20052;-80
2021/04/16 07:27:47;;;;;;;10.75;9.65;;;;;;;29.77;22.48;100951.13;5048555;28;20041;-81
2021/04/16 07:30:52;;;;;;;12.23;9.70;;;;;;;28.49;23.69;100952.19;5051296;28;20048;-80
2021/04/16 07:33:59;;;;;;;13.90;9.38;;;;;;;28.36;23.91;100945.81;5049678;28;20403;-80
2021/04/16 07:37:14;;;;;;;12.40;8.63;;;;;;;30.82;21.67;100954.16;5051632;28;20389;-77
2021/04/16 07:40:27;;;;;;;14.45;8.27;;;;;;;31.58;20.71;100956.16;5049604;28;20053;-79
2021/04/16 07:43:40;;;;;;;;;;;;;;;34.32;18.31;100958.84;5051687;28;20052;-79
2021/04/16 07:46:49;;;;;;;13.00;8.27;;;;;;;32.94;19.11;100960.38;5049778;28;19917;-79
2021/04/16 07:49:56;;;;;;;8.95;7.65;;;;;;;32.87;19.19;100962.56;5055307;28;20051;-80
2021/04/16 07:53:00;;;;;;;9.77;6.90;;;;;;;34.42;17.29;100958.03;5054983;28;20067;-80
2021/04/16 07:56:07;;;;;;;9.85;7.53;;;;;;;34.18;17.48;100956.88;5055310;28;20056;-78
2021/04/16 07:59:14;;;;;;;10.20;7.40;;;;;;;31.03;19.96;100956.22;5023209;28;20057;-79
2021/04/16 08:02:46;;;;;;;9.70;6.13;;;;;;;30.78;19.58;100964.94;5042959;28;20052;-80
2021/04/16 08:05:52;;;;;;;8.70;5.38;;;;;;;30.88;19.37;100965.09;5048132;28;20592;-79
2021/04/16 08:08:57;;;;;;;7.95;4.70;;;;;;;31.08;18.94;100961.84;5050253;28;20044;-80
2021/04/16 08:12:07;;;;;;;9.02;5.00;;;;;;;33.19;17.29;100962.53;5035620;28;20045;-81
2021/04/16 08:15:17;;;;;;;10.65;5.50;;;;;;;32.36;17.83;100958.50;5045753;28;20048;-80
2021/04/16 08:18:25;;;;;;;5.70;5.00;;;;;;;29.98;20.06;100972.59;5052908;28;20056;-81
2021/04/16 08:21:38;;;;;;;9.32;5.72;;;;;;;31.99;18.01;100965.88;5043144;28;20052;-80
2021/04/16 08:25:22;;;;;;;10.68;5.70;;;;;;;29.13;20.86;100960.47;5045358;28;20497;-78
2021/04/16 08:28:50;;;;;;;10.55;5.85;;;;;;;28.76;22.16;100964.53;5047017;28;20447;-80
2021/04/16 08:32:27;;;;;;;8.05;5.32;;;;;;;25.73;24.93;100976.09;5043822;28;20056;-78
2021/04/16 08:35:41;;;;;;;8.43;5.03;;;;;;;23.29;27.95;100965.91;5054333;28;20040;-76
2021/04/16 08:39:01;;;;;;;6.82;5.05;;;;;;;22.29;29.67;100971.81;5051813;28;20428;-78
2021/04/16 08:42:19;;;;;;;7.22;4.43;;;;;;;24.76;25.80;100956.84;5042017;28;20053;-79
2021/04/16 08:45:26;;;;;;;6.40;3.42;;;;;;;26.74;23.55;100963.22;5042948;28;20388;-78
2021/04/16 08:48:38;;;;;;;6.25;4.00;;;;;;;25.22;24.84;100965.03;5051966;28;20044;-78
2021/04/16 08:51:51;;;;;;;6.70;3.70;;;;;;;22.75;27.13;100964.91;5051755;28;20525;-78
2021/04/16 08:55:09;;;;;;;4.70;3.57;;;;;;;19.51;31.30;100978.69;5050757;28;20067;-78
2021/04/16 08:58:33;;;;;;;6.90;4.50;;;;;;;16.91;35.57;100979.38;5034243;28;20068;-79
2021/04/16 09:01:47;;;;;;;8.75;5.38;;;;;;;15.64;38.28;100972.63;5048563;28;20036;-78
2021/04/16 09:04:55;;;;;;;8.35;5.28;;;;;;;15.32;39.44;100973.06;5043883;28;20506;-79
2021/04/16 09:08:09;;;;;;;9.65;5.38;;;;;;;15.35;40.58;100971.91;5031469;28;20052;-79
2021/04/16 09:11:34;;;;;;;7.95;5.30;;;;;;;15.01;40.76;100960.81;5035634;28;20044;-79
2021/04/16 09:14:38;;;;;;;7.70;6.07;;;;;;;14.76;41.63;100978.53;5050682;28;20070;-78
2021/04/16 09:17:52;;;;;;;7.22;4.75;;;;;;;14.77;42.34;100971.28;5044110;28;20047;-79
2021/04/16 09:20:57;;;;;;;7.45;5.30;;;;;;;14.48;41.49;100971.34;5052833;28;20408;-79
2021/04/16 09:24:06;;;;;;;7.90;5.60;;;;;;;13.76;42.78;100970.03;5037394;28;20044;-78
2021/04/16 09:27:25;;;;;;;7.47;5.25;;;;;;;13.90;42.38;100959.69;5038070;28;20052;-79
2021/04/16 09:30:32;;;;;;;11.25;5.57;;;;;;;13.86;42.81;100955.56;5045672;28;20044;-76
2021/04/16 09:33:36;;;;;;;12.55;6.10;;;;;;;13.97;42.82;100965.38;5053785;28;20072;-79
2021/04/16 09:36:46;;;;;;;9.90;7.20;;;;;;;13.92;43.68;100957.72;5032501;28;20048;-79
2021/04/16 09:40:24;;;;;;;8.40;6.00;;;;;;;13.49;43.33;100944.59;5037476;28;20060;-79
2021/04/16 09:43:29;;;;;;;9.55;6.22;;;;;;;13.54;43.94;100939.63;5012125;28;20056;-77
2021/04/16 09:46:33;;;;;;;8.00;6.00;;;;;;;13.50;42.76;100930.13;5030871;28;20053;-78
2021/04/16 09:49:41;;;;;;;8.55;6.10;;;;;;;13.64;43.51;100934.25;5030977;28;20045;-78
2021/04/16 09:52:49;;;;;;;8.13;5.97;;;;;;;13.82;42.76;100918.22;5030967;28;20148;-78
2021/04/16 09:56:00;;;;;;;8.85;5.28;;;;;;;13.76;42.42;100929.56;5031014;28;20148;-79
2021/04/16 09:59:07;;;;;;;7.60;6.35;;;;;;;13.06;43.09;100919.75;5031197;28;20053;-79
2021/04/16 10:02:12;;;;;;;9.55;6.20;;;;;;;13.29;43.40;100923.97;5031459;28;20043;-79
2021/04/16 10:05:18;;;;;;;9.02;6.65;;;;;;;13.49;43.99;100923.00;5030616;28;20052;-78
2021/04/16 10:08:27;;;;;;;9.10;7.13;;;;;;;13.40;44.04;100921.16;5022519;28;20049;-79
2021/04/16 10:11:32;;;;;;;8.98;5.90;;;;;;;13.23;43.03;100919.13;5030871;28;20066;-80
2021/04/16 10:14:39;;;;;;;10.40;6.75;;;;;;;13.15;44.29;100926.19;5024661;28;20052;-78
2021/04/16 10:18:04;;;;;;;8.90;6.63;;;;;;;13.26;44.58;100931.50;5031167;28;20052;-78
2021/04/16 10:21:20;;;;;;;7.25;6.10;;;;;;;13.13;43.19;100922.78;5033268;28;20060;-79
2021/04/16 12:38:59;;;;;;;14.80;8.10;;;;;;;13.52;41.67;100858.00;5100775;27;20374;-77
2021/04/16 12:41:50;;;;;;;13.07;8.50;;;;;;;13.46;41.68;100844.22;5049688;28;20378;-77
2021/04/16 12:44:49;;;;;;;12.40;8.70;;;;;;;13.46;42.98;100833.44;5128692;27;20124;-78
2021/04/16 12:47:31;;;;;;;14.30;7.78;;;;;;;13.66;43.19;100827.91;5102770;27;20385;-77
2021/04/16 12:50:14;;;;;;;12.20;7.72;;;;;;;13.80;42.77;100831.16;5050513;28;20370;-78
2021/04/16 12:52:57;;;;;;;11.35;7.25;;;;;;;13.66;41.71;100835.13;5054413;28;20152;-77
2021/04/16 12:55:41;;;;;;;12.52;7.72;;;;;;;13.70;42.18;100826.59;5105463;27;20377;-77
2021/04/16 12:58:31;;;;;;;10.05;8.02;;;;;;;13.40;41.82;100825.91;5101031;27;20849;-77
2021/04/16 13:01:29;;;;;;;8.80;7.60;;;;;;;13.44;43.41;100824.63;5121349;27;20355;-79
2021/04/16 13:04:10;;;;;;;11.32;8.93;;;;;;;13.28;43.18;100829.75;5100970;27;20721;-78
2021/04/16 13:06:58;;;;;;;10.52;8.60;;;;;;;13.11;43.21;100814.25;5086569;27;20368;-78
2021/04/16 13:09:43;;;;;;;12.35;8.38;;;;;;;13.08;42.51;100819.91;5103224;27;20375;-79
2021/04/16 13:12:27;;;;;;;13.82;8.63;;;;;;;13.05;42.48;100811.09;5131638;27;20354;-79
2021/04/16 13:15:12;;;;;;;10.23;7.85;;;;;;;13.00;42.66;100804.41;5099199;27;20372;-78
2021/04/16 13:18:01;;;;;;;9.98;7.65;;;;;;;13.14;42.95;100795.94;5064916;28;20357;-77
2021/04/16 13:20:48;;;;;;;11.25;8.10;;;;;;;13.29;42.90;100797.25;5103827;27;20361;-78
2021/04/16 13:23:32;;;;;;;13.98;7.30;;;;;;;13.15;40.95;100786.03;5110509;27;20367;-78
2021/04/16 13:26:11;;;;;;;13.07;7.43;;;;;;;13.23;41.59;100783.47;5101120;27;20367;-78
2021/04/16 13:28:55;;;;;;;13.27;7.38;;;;;;;13.31;42.07;100781.78;5107813;27;20367;-78
2021/04/16 13:31:39;;;;;;;9.82;7.22;;;;;;;13.39;41.52;100778.38;5059929;28;20363;-78
2021/04/16 13:34:24;;;;;;;10.15;7.07;;;;;;;13.59;41.26;100778.22;5126115;27;20389;-78
2021/04/16 13:37:12;;;;;;;9.35;6.53;;;;;;;13.63;40.80;100774.22;5096600;27;20367;-78
2021/04/16 13:39:57;;;;;;;9.23;6.65;;;;;;;13.65;41.73;100795.69;5091295;27;20383;-78
2021/04/16 13:42:41;;;;;;;11.68;6.80;;;;;;;13.43;40.15;100764.44;5097018;27;20363;-76
2021/04/16 13:45:20;;;;;;;11.00;7.05;;;;;;;13.53;40.71;100751.81;5058609;27;20370;-79
2021/04/16 13:48:01;;;;;;;11.82;7.18;;;;;;;13.53;41.03;100764.44;5051030;28;20400;-78
2021/04/16 13:50:42;;;;;;;8.23;5.88;;;;;;;13.40;38.89;100756.66;5065734;28;20701;-78
2021/04/16 13:53:27;;;;;;;8.27;5.47;;;;;;;13.34;40.50;100750.97;5100635;27;20368;-77
2021/04/16 13:56:11;;;;;;;8.00;5.35;;;;;;;13.50;40.81;100745.88;5107417;27;20372;-77
2021/04/16 13:58:52;;;;;;;9.93;5.82;;;;;;;13.75;40.39;100757.91;5101274;27;20367;-77
2021/04/16 14:01:32;;;;;;;8.32;5.35;;;;;;;13.80;39.97;100744.81;5093877;27;20374;-79
2021/04/16 14:04:25;;;;;;;9.70;5.55;;;;;;;13.81;39.25;100735.72;5050461;28;20373;-78
2021/04/16 14:07:08;;;;;;;8.70;5.15;;;;;;;13.70;39.70;100740.28;5091287;27;20386;-77
2021/04/16 14:10:14;;;;;;;8.82;4.68;;;;;;;13.73;39.94;100749.09;5084312;28;20047;-78
2021/04/16 14:13:18;;;;;;;7.40;4.65;;;;;;;13.62;40.25;100739.31;5050251;28;20056;-79
2021/04/16 14:16:35;;;;;;;7.10;5.05;;;;;;;13.45;39.96;100734.66;5076411;28;20051;-78
2021/04/16 14:20:10;;;;;;;7.78;5.18;;;;;;;13.48;40.73;100727.13;5079711;28;20055;-80
2021/04/16 14:23:15;;;;;;;8.77;4.00;;;;;;;13.52;38.42;100725.84;5089871;28;20059;-78
2021/04/16 14:26:21;;;;;;;8.40;5.28;;;;;;;13.52;39.21;100730.38;5065590;28;20051;-78
2021/04/16 14:29:26;;;;;;;6.43;5.18;;;;;;;13.54;39.19;100731.94;5088469;28;20055;-77
2021/04/16 14:32:31;;;;;;;11.73;5.00;;;;;;;13.62;39.76;100726.69;5086215;28;20055;-78
2021/04/16 14:35:35;;;;;;;8.95;5.45;;;;;;;13.69;41.09;100729.66;5072097;28;20047;-78
2021/04/16 14:38:39;;;;;;;8.93;5.88;;;;;;;13.73;41.66;100730.22;5076016;28;20047;-80
2021/04/16 14:41:43;;;;;;;8.80;4.97;;;;;;;13.84;40.84;100727.34;5077020;28;20066;-81
2021/04/16 14:44:48;;;;;;;7.10;3.78;;;;;;;13.89;40.19;100727.75;5061191;28;20056;-77
2021/04/16 14:47:56;;;;;;;17.98;13.98;;;;;;;13.76;42.75;100733.47;5057303;28;20514;-79
2021/04/16 14:51:05;;;;;;;13.07;8.13;;;;;;;13.62;42.89;100731.22;5069737;28;20067;-82
2021/04/16 14:54:19;;;;;;;12.02;8.35;;;;;;;13.57;43.88;100723.56;5068373;28;20507;-78
2021/04/16 14:57:30;;;;;;;7.78;5.78;;;;;;;13.38;43.33;100737.06;5076836;28;20051;-78
2021/04/16 15:00:36;;;;;;;6.40;5.10;;;;;;;13.24;44.21;100732.09;5042999;28;20048;-80
2021/04/16 15:03:40;;;;;;;10.43;6.43;;;;;;;13.19;42.35;100738.91;5065662;28;20044;-79
2021/04/16 15:06:46;;;;;;;10.52;5.57;;;;;;;13.17;41.53;100722.03;5079522;28;20072;-80
2021/04/16 15:10:05;;;;;;;9.10;5.63;;;;;;;13.23;41.71;100732.25;5036514;28;20068;-78
2021/04/16 15:13:21;;;;;;;10.02;6.20;;;;;;;13.25;41.47;100727.56;5067928;28;20412;-78
2021/04/16 15:16:25;;;;;;;8.90;6.03;;;;;;;13.19;42.09;100718.22;5071231;28;20056;-80
2021/04/16 15:19:35;;;;;;;10.48;6.10;;;;;;;13.28;42.22;100722.72;5059728;28;20047;-79
2021/04/16 15:22:39;;;;;;;12.88;7.65;;;;;;;13.23;42.39;100711.56;5062992;28;20056;-80
2021/04/16 15:25:46;;;;;;;15.50;11.23;;;;;;;13.26;43.39;100708.56;5075256;28;20052;-79
2021/04/16 15:29:23;;;;;;;11.63;6.95;;;;;;;13.31;43.07;100706.28;5044400;28;20052;-79
2021/04/16 15:32:40;;;;;;;9.20;6.70;;;;;;;13.19;42.98;100710.13;5075302;28;20048;-80
2021/04/16 15:46:29;;;;;;;8.57;4.28;;;;;;;13.10;44.18;100704.72;5041995;28;20055;-79
2021/04/16 15:49:34;;;;;;;8.40;4.40;;;;;;;13.11;44.60;100707.28;5046165;28;20053;-79
2021/04/16 15:52:39;;;;;;;8.13;4.30;;;;;;;13.08;44.72;100707.59;5056661;28;20506;-79
2021/04/16 15:55:43;;;;;;;11.93;5.40;;;;;;;13.09;44.89;100711.09;5049573;28;20118;-79